createdAt,value
2019-02-21T00:00:23.797Z,98.60
2019-02-21T00:05:26.564Z,99.00
2019-02-21T00:07:47.219Z,99.20
2019-02-21T00:10:24.069Z,99.20
2019-02-21T00:12:44.513Z,99.30
2019-02-21T00:15:02.009Z,99.40
2019-02-21T00:17:21.868Z,99.50
2019-02-21T00:19:40.473Z,99.50
2019-02-21T00:21:56.470Z,99.50
2019-02-21T00:24:14.674Z,99.60
2019-02-21T00:26:32.561Z,99.50
2019-02-21T00:31:10.585Z,99.30
2019-02-21T00:33:31.141Z,99.20
2019-02-21T00:35:48.725Z,99.50
2019-02-21T00:43:15.230Z,99.50
2019-02-21T00:45:31.791Z,99.40
2019-02-21T00:47:48.192Z,99.40
2019-02-21T00:50:04.668Z,99.50
2019-02-21T00:52:24.204Z,99.70
2019-02-21T00:54:40.463Z,99.90
2019-02-21T00:56:56.713Z,99.90
2019-02-21T00:59:14.061Z,99.90
2019-02-21T01:01:31.185Z,99.90
2019-02-21T01:03:48.062Z,99.90
2019-02-21T01:06:12.343Z,99.90
2019-02-21T01:08:29.178Z,99.90
2019-02-21T01:10:53.430Z,99.90
2019-02-21T01:13:10.163Z,99.90
2019-02-21T01:15:17.014Z,99.90
2019-02-21T01:17:41.430Z,99.90
2019-02-21T01:20:06.858Z,99.90
2019-02-21T01:22:23.826Z,99.90
2019-02-21T01:24:42.358Z,99.90
2019-02-21T01:26:58.416Z,99.90
2019-02-21T01:29:25.237Z,99.90
2019-02-21T01:31:49.147Z,99.90
2019-02-21T01:34:04.994Z,99.90
2019-02-21T01:36:29.224Z,99.90
2019-02-21T01:38:46.118Z,99.90
2019-02-21T01:41:03.489Z,99.90
2019-02-21T01:43:19.836Z,99.90
2019-02-21T01:45:27.921Z,99.90
2019-02-21T01:47:34.412Z,99.90
2019-02-21T01:49:58.315Z,99.90
2019-02-21T01:52:15.389Z,99.90
2019-02-21T01:54:22.215Z,99.90
2019-02-21T01:56:46.249Z,99.90
2019-02-21T01:59:02.722Z,99.90
2019-02-21T02:01:20.277Z,99.90
2019-02-21T02:03:37.718Z,99.90
2019-02-21T02:05:54.963Z,99.90
2019-02-21T02:08:11.914Z,99.90
2019-02-21T02:10:28.930Z,99.90
2019-02-21T02:12:45.675Z,99.90
2019-02-21T02:15:03.902Z,99.90
2019-02-21T02:17:21.990Z,99.90
2019-02-21T02:19:38.404Z,99.90
2019-02-21T02:21:55.051Z,99.90
2019-02-21T02:24:14.650Z,99.90
2019-02-21T02:26:31.278Z,99.90
2019-02-21T02:28:50.285Z,99.90
2019-02-21T02:31:07.493Z,99.90
2019-02-21T02:33:25.853Z,99.90
2019-02-21T02:35:44.310Z,99.90
2019-02-21T02:38:00.596Z,99.90
2019-02-21T02:40:17.926Z,99.90
2019-02-21T02:42:34.409Z,99.90
2019-02-21T02:44:59.257Z,99.90
2019-02-21T02:47:16.984Z,99.90
2019-02-21T02:49:33.348Z,99.90
2019-02-21T02:51:49.610Z,99.90
2019-02-21T02:54:06.257Z,99.90
2019-02-21T02:56:22.745Z,99.90
2019-02-21T02:58:39.418Z,99.90
2019-02-21T03:00:55.597Z,99.90
2019-02-21T03:06:14.216Z,99.90
2019-02-21T03:08:11.388Z,99.90
2019-02-21T03:11:01.968Z,99.90
2019-02-21T03:12:40.053Z,99.90
2019-02-21T03:15:23.649Z,99.90
2019-02-21T03:17:40.627Z,99.60
2019-02-21T03:20:01.687Z,99.50
2019-02-21T03:22:45.294Z,99.30
2019-02-21T03:24:44.641Z,99.30
2019-02-21T03:29:51.658Z,99.50
2019-02-21T03:32:03.239Z,99.40
2019-02-21T03:34:26.306Z,99.50
2019-02-21T03:36:45.477Z,99.30
2019-02-21T03:39:06.109Z,99.30
2019-02-21T03:41:25.890Z,99.50
2019-02-21T03:43:46.168Z,99.50
2019-02-21T03:46:23.060Z,99.50
2019-02-21T03:48:27.791Z,99.60
2019-02-21T03:50:44.479Z,99.60
2019-02-21T03:53:04.291Z,99.70
2019-02-21T03:55:10.724Z,99.90
2019-02-21T03:57:34.582Z,99.90
2019-02-21T03:59:58.194Z,99.90
2019-02-21T04:02:14.848Z,99.90
2019-02-21T04:04:31.271Z,99.90
2019-02-21T04:06:48.780Z,99.90
2019-02-21T04:09:09.315Z,99.90
2019-02-21T04:11:29.378Z,99.90
2019-02-21T04:13:49.269Z,99.90
2019-02-21T04:16:33.331Z,99.90
2019-02-21T04:18:28.897Z,99.90
2019-02-21T04:20:49.702Z,99.90
2019-02-21T04:23:08.178Z,99.90
2019-02-21T04:25:28.634Z,99.90
2019-02-21T04:30:05.830Z,99.90
2019-02-21T04:32:26.479Z,99.90
2019-02-21T04:42:10.216Z,99.90
2019-02-21T04:44:31.630Z,99.90
2019-02-21T04:46:48.684Z,99.90
2019-02-21T04:49:09.369Z,99.90
2019-02-21T04:56:27.049Z,99.90
2019-02-21T04:58:33.640Z,99.90
2019-02-21T05:06:23.351Z,99.90
2019-02-21T05:08:33.154Z,99.90
2019-02-21T05:10:57.072Z,99.90
2019-02-21T05:15:29.013Z,99.90
2019-02-21T05:22:13.334Z,99.90
2019-02-21T05:29:08.944Z,99.90
2019-02-21T05:31:28.519Z,99.90
2019-02-21T05:36:52.223Z,99.90
2019-02-21T05:41:48.039Z,99.90
2019-02-21T05:46:37.857Z,99.90
2019-02-21T05:49:17.151Z,99.90
2019-02-21T05:59:12.679Z,99.90
2019-02-21T06:01:48.494Z,99.90
2019-02-21T06:04:33.484Z,99.90
2019-02-21T06:07:09.860Z,99.90
2019-02-21T06:09:27.760Z,99.90
2019-02-21T06:12:05.040Z,99.90
2019-02-21T06:17:38.245Z,99.90
2019-02-21T06:20:13.252Z,99.90
2019-02-21T06:22:55.736Z,99.90
2019-02-21T06:25:35.659Z,99.90
2019-02-21T06:41:59.968Z,99.90
2019-02-21T06:44:16.374Z,99.90
2019-02-21T06:51:24.501Z,99.90
2019-02-21T06:53:23.471Z,99.90
2019-02-21T06:55:52.645Z,99.90
2019-02-21T06:58:24.806Z,99.90
2019-02-21T07:01:12.255Z,99.90
2019-02-21T07:03:21.808Z,99.90
2019-02-21T07:08:20.888Z,99.90
2019-02-21T07:11:10.196Z,99.90
2019-02-21T07:13:26.002Z,99.90
2019-02-21T07:18:11.886Z,99.90
2019-02-21T07:21:10.232Z,99.90
2019-02-21T07:25:54.859Z,99.90
2019-02-21T07:28:16.831Z,99.90
2019-02-21T07:31:00.681Z,99.90
2019-02-21T07:38:06.663Z,99.90
2019-02-21T07:40:23.376Z,99.90
2019-02-21T07:43:37.291Z,99.80
2019-02-21T07:47:21.538Z,99.20
2019-02-21T07:52:36.009Z,98.40
2019-02-21T07:54:38.188Z,98.50
2019-02-21T07:57:01.482Z,98.60
2019-02-21T08:01:46.608Z,98.70
2019-02-21T08:04:05.440Z,98.80
2019-02-21T08:11:47.212Z,99.70
2019-02-21T08:14:02.471Z,99.70
2019-02-21T08:16:07.651Z,99.90
2019-02-21T08:18:21.067Z,99.90
2019-02-21T08:20:40.413Z,99.90
2019-02-21T08:22:53.687Z,99.90
2019-02-21T08:25:01.785Z,99.90
2019-02-21T08:27:06.591Z,99.90
2019-02-21T08:29:20.683Z,99.90
2019-02-21T08:31:30.034Z,99.90
2019-02-21T08:33:57.973Z,99.90
2019-02-21T08:36:00.509Z,99.90
2019-02-21T08:38:13.138Z,99.90
2019-02-21T08:42:53.170Z,99.90
2019-02-21T08:45:01.964Z,99.90
2019-02-21T08:47:07.187Z,99.90
2019-02-21T08:49:20.326Z,99.90
2019-02-21T08:51:36.005Z,99.80
2019-02-21T08:53:45.886Z,99.70
2019-02-21T08:55:55.904Z,99.60
2019-02-21T08:58:02.011Z,99.30
2019-02-21T09:00:28.228Z,99.10
2019-02-21T09:02:35.967Z,99.10
2019-02-21T09:04:46.905Z,99.10
2019-02-21T09:06:55.230Z,99.10
2019-02-21T09:09:10.838Z,99.00
2019-02-21T09:11:16.335Z,98.90
2019-02-21T09:13:23.610Z,98.80
2019-02-21T09:15:38.400Z,98.80
2019-02-21T09:17:48.443Z,98.50
2019-02-21T09:20:09.503Z,98.10
2019-02-21T09:22:28.467Z,98.10
2019-02-21T09:24:43.255Z,98.10
2019-02-21T09:26:50.366Z,97.80
2019-02-21T09:29:06.370Z,97.80
2019-02-21T09:31:18.084Z,98.00
2019-02-21T09:33:53.686Z,98.00
2019-02-21T09:36:16.210Z,97.90
2019-02-21T09:38:26.655Z,97.90
2019-02-21T09:40:46.957Z,97.70
2019-02-21T09:43:16.019Z,97.50
2019-02-21T09:45:44.791Z,97.70
2019-02-21T09:47:56.329Z,97.60
2019-02-21T09:50:13.326Z,97.60
2019-02-21T09:52:25.578Z,97.40
2019-02-21T09:54:39.967Z,97.30
2019-02-21T09:56:52.935Z,97.10
2019-02-21T09:58:59.657Z,96.60
2019-02-21T10:01:23.329Z,96.40
2019-02-21T10:03:39.064Z,96.40
2019-02-21T10:06:03.169Z,96.30
2019-02-21T10:08:21.990Z,96.50
2019-02-21T10:10:36.562Z,96.40
2019-02-21T10:15:49.175Z,96.60
2019-02-21T10:18:05.253Z,96.80
2019-02-21T10:20:37.515Z,96.70
2019-02-21T10:22:56.468Z,96.90
2019-02-21T10:25:16.869Z,96.70
2019-02-21T10:27:29.163Z,96.50
2019-02-21T10:29:52.784Z,96.30
2019-02-21T10:32:20.657Z,96.00
2019-02-21T10:34:29.659Z,95.90
2019-02-21T10:36:34.469Z,95.80
2019-02-21T10:38:43.322Z,95.90
2019-02-21T10:53:57.827Z,95.90
2019-02-21T10:56:32.340Z,95.50
2019-02-21T10:58:39.711Z,95.40
2019-02-21T11:01:22.559Z,95.20
2019-02-21T11:09:18.491Z,94.40
2019-02-21T11:12:00.544Z,94.40
2019-02-21T11:14:08.004Z,94.10
2019-02-21T11:16:31.852Z,94.00
2019-02-21T11:18:48.390Z,93.90
2019-02-21T11:21:07.115Z,93.90
2019-02-21T11:23:30.754Z,93.80
2019-02-21T11:26:10.118Z,93.90
2019-02-21T11:31:22.801Z,93.60
2019-02-21T11:33:52.880Z,93.80
2019-02-21T11:38:54.931Z,93.70
2019-02-21T12:05:46.374Z,92.00
2019-02-21T12:08:12.796Z,91.70
2019-02-21T12:10:57.827Z,91.20
2019-02-21T12:13:21.730Z,91.20
2019-02-21T12:16:06.753Z,91.50
2019-02-21T12:18:52.808Z,91.30
2019-02-21T12:21:58.439Z,91.20
2019-02-21T12:23:59.612Z,90.40
2019-02-21T12:44:04.998Z,90.90
2019-02-21T12:52:28.159Z,89.20
2019-02-21T12:59:46.475Z,89.90
2019-02-21T13:02:09.662Z,90.00
2019-02-21T13:07:09.764Z,88.90
2019-02-21T13:12:04.573Z,89.40
2019-02-21T13:14:26.488Z,88.90
2019-02-21T13:21:50.055Z,90.70
2019-02-21T13:38:00.155Z,89.20
2019-02-21T13:46:36.485Z,90.20
2019-02-21T13:51:09.778Z,90.50
2019-02-21T13:53:28.009Z,90.20
2019-02-21T13:58:41.649Z,90.00
2019-02-21T14:00:57.822Z,89.50
2019-02-21T14:03:13.373Z,89.20
2019-02-21T14:08:24.529Z,90.00
2019-02-21T14:11:37.328Z,90.10
2019-02-21T14:13:50.727Z,90.10
2019-02-21T14:16:31.267Z,90.40
2019-02-21T14:24:36.739Z,91.00
2019-02-21T14:26:59.540Z,91.30
2019-02-21T14:32:30.460Z,91.40
2019-02-21T14:37:10.016Z,91.00
2019-02-21T14:39:35.942Z,91.10
2019-02-21T14:44:37.737Z,91.10
2019-02-21T14:47:00.151Z,91.20
2019-02-21T14:51:57.259Z,91.20
2019-02-21T14:57:48.510Z,91.40
2019-02-21T15:02:22.417Z,91.50
2019-02-21T15:05:12.345Z,91.30
2019-02-21T15:16:32.432Z,90.70
2019-02-21T15:29:42.772Z,92.40
2019-02-21T15:37:27.431Z,92.60
2019-02-21T15:40:04.793Z,92.70
2019-02-21T15:42:21.600Z,92.80
2019-02-21T15:44:50.846Z,93.00
2019-02-21T15:47:59.435Z,93.10
2019-02-21T15:55:46.406Z,93.00
2019-02-21T15:58:33.529Z,93.00
2019-02-21T16:00:51.754Z,93.10
2019-02-21T16:06:19.339Z,92.90
2019-02-21T16:14:34.034Z,93.00
2019-02-21T16:22:37.601Z,93.30
2019-02-21T16:24:37.922Z,93.50
2019-02-21T16:32:55.458Z,93.50
2019-02-21T16:35:38.627Z,93.60
2019-02-21T16:38:25.112Z,93.60
2019-02-21T16:44:13.767Z,93.80
2019-02-21T16:46:54.023Z,94.00
2019-02-21T16:49:40.252Z,94.00
2019-02-21T16:57:53.175Z,94.40
2019-02-21T17:08:43.660Z,95.00
2019-02-21T17:10:59.838Z,95.00
2019-02-21T17:13:21.806Z,94.90
2019-02-21T17:21:27.164Z,95.10
2019-02-21T17:27:10.199Z,95.30
2019-02-21T17:29:21.764Z,95.50
2019-02-21T17:43:40.775Z,95.60
2019-02-21T17:48:42.746Z,95.40
2019-02-21T17:50:48.439Z,95.60
2019-02-21T17:53:25.866Z,95.60
2019-02-21T17:56:18.619Z,95.60
2019-02-21T17:58:46.988Z,95.70
2019-02-21T18:01:32.969Z,95.90
2019-02-21T18:04:10.140Z,95.90
2019-02-21T18:06:47.138Z,95.90
2019-02-21T18:08:54.890Z,96.00
2019-02-21T18:11:39.021Z,96.10
2019-02-21T18:13:37.974Z,96.20
2019-02-21T18:19:43.330Z,96.30
2019-02-21T18:22:29.440Z,96.30
2019-02-21T18:25:03.739Z,96.30
2019-02-21T18:29:45.590Z,96.50
2019-02-21T18:40:02.394Z,96.60
2019-02-21T18:48:07.535Z,96.50
2019-02-21T18:55:38.252Z,96.30
2019-02-21T19:00:46.242Z,96.30
2019-02-21T19:08:50.202Z,96.70
2019-02-21T19:20:42.868Z,97.30
2019-02-21T19:22:54.014Z,97.50
2019-02-21T19:25:40.668Z,97.50
2019-02-21T19:45:49.741Z,97.40
2019-02-21T19:48:08.912Z,97.40
2019-02-21T19:51:17.255Z,97.30
2019-02-21T19:55:25.173Z,97.10
2019-02-21T19:57:49.180Z,97.30
2019-02-21T20:03:57.081Z,97.20
2019-02-21T20:10:05.317Z,97.30
2019-02-21T20:15:33.798Z,97.40
2019-02-21T20:18:16.488Z,97.20
2019-02-21T20:21:01.731Z,97.10
2019-02-21T20:25:22.603Z,97.10
2019-02-21T20:29:38.240Z,96.80
2019-02-21T20:32:22.554Z,96.70
2019-02-21T20:35:13.499Z,96.70
2019-02-21T20:40:23.806Z,96.40
2019-02-21T20:45:33.140Z,96.40
2019-02-21T20:53:11.423Z,96.10
2019-02-21T20:58:43.919Z,96.00
2019-02-21T21:01:26.307Z,95.90
2019-02-21T21:04:27.840Z,96.00
2019-02-21T21:12:59.486Z,95.90
2019-02-21T21:18:49.833Z,96.10
2019-02-21T21:21:34.538Z,96.20
2019-02-21T21:24:22.342Z,96.10
2019-02-21T21:27:07.913Z,96.20
2019-02-21T21:30:45.268Z,96.30
2019-02-21T21:32:04.971Z,96.40
2019-02-21T21:34:50.982Z,96.40
2019-02-21T21:37:17.128Z,96.70
2019-02-21T21:45:49.328Z,96.50
2019-02-21T21:54:19.640Z,96.80
2019-02-21T21:57:11.046Z,96.90
2019-02-21T22:14:31.024Z,96.90
2019-02-21T22:23:11.352Z,96.80
2019-02-21T22:28:42.385Z,96.30
2019-02-21T22:31:43.125Z,96.20
2019-02-21T22:33:49.662Z,96.20
2019-02-21T22:36:46.421Z,96.10
2019-02-21T22:38:57.951Z,96.00
2019-02-21T22:41:36.250Z,96.10
2019-02-21T22:44:05.229Z,96.10
2019-02-21T22:49:34.648Z,96.20
2019-02-21T22:51:44.332Z,96.60
2019-02-21T22:59:04.718Z,96.50
2019-02-21T23:10:28.622Z,97.30
2019-02-21T23:15:57.506Z,97.50
2019-02-21T23:26:45.777Z,99.10
2019-02-21T23:32:34.826Z,98.50
2019-02-21T23:38:01.335Z,98.10
2019-02-21T23:40:10.941Z,98.00
2019-02-21T23:42:55.755Z,98.10
2019-02-21T23:48:35.288Z,98.60
2019-02-21T23:56:59.772Z,98.70
